Time;durP1;ratioP1;P1;durP2;ratioP2;P2;SDS_P1;SDS_P2;PMS_P1;PMS_P2;Temp;Humidity;BMP_temperature;BMP_pressure;BME280_temperature;BME280_humidity;BME280_pressure;Samples;Min_cycle;Max_cycle;Signal;HPM_P1;HPM_P2
2021/12/23 00:00:24;;;;;;;123.73;44.00;;;;;;;-6.86;73.43;99781.19;2140013;83;20953;-81
2021/12/23 00:03:26;;;;;;;101.53;41.90;;;;;;;-6.78;73.71;99785.34;2115750;83;20997;-81
2021/12/23 00:06:27;;;;;;;104.50;44.40;;;;;;;-6.67;73.79;99774.54;2139748;83;21381;-81
2021/12/23 00:09:50;;;;;;;108.80;43.43;;;;;;;-6.63;73.08;99775.72;2140164;83;21294;-81
2021/12/23 00:12:29;;;;;;;118.03;45.43;;;;;;;-6.62;72.94;99773.32;2135768;83;21022;-82
2021/12/23 00:15:37;;;;;;;119.17;47.40;;;;;;;-6.59;72.93;99763.83;2139920;83;20950;-81
2021/12/23 00:24:56;;;;;;;111.60;44.43;;;;;;;-6.47;73.28;99745.53;2140030;82;21442;-81
2021/12/23 00:27:57;;;;;;;124.47;48.00;;;;;;;-6.39;73.14;99738.61;2140098;83;20974;-81
2021/12/23 00:30:59;;;;;;;117.60;46.27;;;;;;;-6.37;73.32;99751.08;2140420;83;20926;-81
2021/12/23 00:33:59;;;;;;;106.13;44.57;;;;;;;-6.35;73.62;99748.30;2139889;83;21357;-81
2021/12/23 00:37:01;;;;;;;114.60;42.93;;;;;;;-6.26;73.62;99743.16;2140101;83;20974;-81
2021/12/23 00:40:02;;;;;;;124.37;49.13;;;;;;;-6.29;73.13;99751.41;2139744;83;20978;-82
2021/12/23 00:43:02;;;;;;;120.33;46.20;;;;;;;-6.23;73.28;99751.06;2139612;83;20923;-83
2021/12/23 00:46:04;;;;;;;133.50;49.10;;;;;;;-6.18;73.19;99744.75;2139945;83;21025;-81
2021/12/23 00:49:05;;;;;;;125.03;50.87;;;;;;;-6.23;72.82;99732.90;2139514;83;21314;-82
2021/12/23 00:52:08;;;;;;;125.97;48.73;;;;;;;-6.30;72.74;99738.55;2139334;83;20987;-81
2021/12/23 00:55:08;;;;;;;119.73;46.77;;;;;;;-6.35;72.77;99735.97;2139610;83;21057;-82
2021/12/23 00:58:09;;;;;;;119.67;45.10;;;;;;;-6.35;72.83;99738.14;2140150;83;21346;-80
2021/12/23 01:01:09;;;;;;;115.13;44.50;;;;;;;-6.35;73.00;99733.05;2139586;83;20962;-80
2021/12/23 01:04:10;;;;;;;120.80;45.23;;;;;;;-6.34;73.22;99718.70;2139464;83;21017;-80
2021/12/23 01:07:10;;;;;;;109.07;43.90;;;;;;;-6.32;73.39;99711.73;2140124;83;20930;-81
2021/12/23 01:10:11;;;;;;;114.47;44.80;;;;;;;-6.27;73.30;99715.97;2139865;83;21025;-81
2021/12/23 01:13:14;;;;;;;120.23;47.70;;;;;;;-6.24;73.06;99703.54;2140155;83;20982;-82
2021/12/23 01:16:25;;;;;;;128.73;47.07;;;;;;;-6.27;72.90;99702.89;2140198;83;21006;-82
2021/12/23 01:19:16;;;;;;;122.00;47.90;;;;;;;-6.26;72.96;99696.16;2137941;83;20994;-81
2021/12/23 01:22:17;;;;;;;117.10;47.50;;;;;;;-6.26;73.08;99695.78;2140056;83;20943;-81
2021/12/23 01:25:17;;;;;;;111.83;45.83;;;;;;;-6.24;73.06;99694.64;2140171;82;21368;-81
2021/12/23 01:28:18;;;;;;;109.77;47.47;;;;;;;-6.22;73.26;99694.03;2140057;83;20911;-81
2021/12/23 01:31:18;;;;;;;115.30;48.30;;;;;;;-6.17;73.75;99696.61;2139920;83;21357;-81
2021/12/23 01:34:19;;;;;;;113.07;47.73;;;;;;;-6.11;73.81;99693.72;2139755;83;21006;-83
2021/12/23 01:37:19;;;;;;;130.43;52.13;;;;;;;-6.06;74.34;99690.36;2139863;83;20938;-80
2021/12/23 01:40:20;;;;;;;113.47;46.73;;;;;;;-5.98;74.64;99683.03;2139451;83;20950;-81
2021/12/23 01:43:20;;;;;;;122.03;51.87;;;;;;;-5.92;74.77;99684.47;2139707;83;21440;-81
2021/12/23 01:46:22;;;;;;;129.43;54.03;;;;;;;-5.86;74.76;99684.09;2139886;83;20950;-81
2021/12/23 01:49:22;;;;;;;115.37;51.10;;;;;;;-5.82;74.84;99679.41;2141483;83;21032;-82
2021/12/23 01:52:23;;;;;;;133.27;52.53;;;;;;;-5.74;74.96;99669.91;2141816;83;20955;-84
2021/12/23 01:55:23;;;;;;;128.17;53.20;;;;;;;-5.72;74.74;99667.13;2142363;83;21525;-84
2021/12/23 01:58:24;;;;;;;130.83;55.40;;;;;;;-5.69;74.65;99668.67;2141951;83;20958;-82
2021/12/23 02:01:24;;;;;;;137.43;55.20;;;;;;;-5.69;74.75;99663.96;2140768;83;21005;-82
2021/12/23 02:04:25;;;;;;;136.27;55.57;;;;;;;-5.65;74.67;99653.30;2141497;83;20962;-82
2021/12/23 02:07:26;;;;;;;133.07;55.47;;;;;;;-5.64;74.54;99650.00;2141429;83;21037;-81
2021/12/23 02:10:26;;;;;;;130.40;53.90;;;;;;;-5.64;74.51;99655.97;2140888;83;21002;-82
2021/12/23 02:13:27;;;;;;;133.20;56.07;;;;;;;-5.65;74.09;99649.48;2141288;83;21001;-82
2021/12/23 02:16:27;;;;;;;126.77;52.03;;;;;;;-5.70;74.03;99650.35;2141623;83;20962;-82
2021/12/23 02:19:28;;;;;;;130.20;55.43;;;;;;;-5.73;74.03;99647.54;2141109;83;20938;-82
2021/12/23 02:22:28;;;;;;;126.80;55.73;;;;;;;-5.73;74.05;99649.19;2141431;83;20991;-82
2021/12/23 02:25:29;;;;;;;128.37;54.60;;;;;;;-5.74;74.10;99641.94;2142533;82;21017;-82
2021/12/23 02:28:29;;;;;;;140.50;55.63;;;;;;;-5.74;74.20;99637.23;2157393;82;20906;-81
2021/12/23 02:31:29;;;;;;;133.27;54.50;;;;;;;-5.74;74.16;99638.50;2157495;83;21403;-81
2021/12/23 02:34:30;;;;;;;130.00;54.60;;;;;;;-5.75;74.11;99629.09;2157534;82;21389;-81
2021/12/23 02:37:31;;;;;;;140.30;58.30;;;;;;;-5.77;73.99;99631.50;2128968;83;20957;-83
2021/12/23 02:40:31;;;;;;;145.80;60.63;;;;;;;-5.81;74.03;99626.53;2157897;82;21036;-83
2021/12/23 02:43:32;;;;;;;134.00;55.07;;;;;;;-5.83;74.04;99619.52;2157926;83;20977;-82
2021/12/23 02:46:32;;;;;;;127.77;50.90;;;;;;;-5.83;74.09;99618.25;2156282;82;20977;-82
2021/12/23 02:49:33;;;;;;;139.47;58.17;;;;;;;-5.85;74.05;99615.95;2156721;83;20993;-82
2021/12/23 02:52:34;;;;;;;138.93;59.63;;;;;;;-5.88;74.16;99611.87;2156532;83;20950;-82
2021/12/23 02:55:34;;;;;;;143.80;57.23;;;;;;;-5.90;74.29;99602.88;2156487;82;21016;-82
2021/12/23 02:58:35;;;;;;;135.93;58.97;;;;;;;-5.90;74.28;99596.90;2157108;82;21368;-82
2021/12/23 03:01:35;;;;;;;126.17;52.80;;;;;;;-5.89;74.32;99594.45;2156219;82;21013;-83
2021/12/23 03:04:36;;;;;;;134.83;55.67;;;;;;;-5.93;74.22;99592.44;2156353;82;21000;-82
2021/12/23 03:07:36;;;;;;;148.43;61.90;;;;;;;-5.97;74.30;99585.30;2156575;82;21357;-82
2021/12/23 03:10:37;;;;;;;137.43;57.27;;;;;;;-6.03;74.31;99573.33;2156905;82;21336;-82
2021/12/23 03:13:38;;;;;;;136.93;57.17;;;;;;;-6.08;74.28;99564.38;2157054;83;21041;-82
2021/12/23 03:16:38;;;;;;;141.40;56.63;;;;;;;-6.16;74.39;99562.81;2157265;83;20949;-84
2021/12/23 03:19:39;;;;;;;146.90;59.27;;;;;;;-6.22;74.33;99559.36;2157450;83;20986;-83
2021/12/23 03:22:39;;;;;;;140.43;60.53;;;;;;;-6.30;74.38;99559.44;2156573;83;21005;-82
2021/12/23 03:25:40;;;;;;;138.53;59.23;;;;;;;-6.36;74.59;99557.25;2154955;82;20993;-83
2021/12/23 03:28:40;;;;;;;128.70;55.23;;;;;;;-6.39;74.49;99553.55;2140673;83;20946;-82
2021/12/23 03:31:40;;;;;;;131.17;53.90;;;;;;;-6.44;74.50;99554.41;2140095;83;20978;-83
2021/12/23 03:34:41;;;;;;;147.87;59.77;;;;;;;-6.49;74.53;99555.27;2139728;83;21372;-81
2021/12/23 03:37:41;;;;;;;132.00;53.90;;;;;;;-6.52;74.76;99556.64;2140399;83;21361;-84
2021/12/23 03:40:42;;;;;;;132.47;54.63;;;;;;;-6.53;74.61;99544.70;2140151;83;20927;-82
2021/12/23 03:43:42;;;;;;;133.67;52.47;;;;;;;-6.56;74.59;99548.23;2140135;83;21003;-82
2021/12/23 03:46:43;;;;;;;146.80;59.43;;;;;;;-6.56;74.79;99544.05;2139992;83;20934;-82
2021/12/23 03:49:43;;;;;;;126.47;54.00;;;;;;;-6.58;74.58;99546.83;2140090;83;20948;-82
2021/12/23 03:52:44;;;;;;;138.10;53.97;;;;;;;-6.61;74.57;99537.67;2140397;83;20926;-83
2021/12/23 03:55:44;;;;;;;135.63;53.20;;;;;;;-6.63;74.63;99529.02;2139940;83;21345;-79
2021/12/23 03:58:45;;;;;;;129.07;52.80;;;;;;;-6.64;74.64;99525.08;2140383;83;21353;-82
2021/12/23 04:01:45;;;;;;;130.30;52.50;;;;;;;-6.67;74.66;99513.00;2139876;83;20954;-83
2021/12/23 04:04:46;;;;;;;126.77;51.80;;;;;;;-6.66;74.63;99517.33;2140196;83;20993;-82
2021/12/23 04:07:46;;;;;;;135.27;50.70;;;;;;;-6.68;74.70;99511.22;2140387;83;20927;-83
2021/12/23 04:10:47;;;;;;;116.70;47.87;;;;;;;-6.70;74.75;99505.48;2140345;83;20935;-83
2021/12/23 04:13:48;;;;;;;132.27;54.33;;;;;;;-6.73;74.70;99507.38;2140164;83;20930;-83
2021/12/23 04:16:48;;;;;;;132.70;52.13;;;;;;;-6.73;74.91;99506.11;2140152;83;20938;-83
2021/12/23 04:19:49;;;;;;;126.63;50.53;;;;;;;-6.73;74.80;99506.11;2139634;83;20930;-83
2021/12/23 04:22:50;;;;;;;130.23;50.90;;;;;;;-6.74;74.80;99501.78;2139732;83;20966;-82
2021/12/23 04:25:50;;;;;;;128.77;52.60;;;;;;;-6.77;74.86;99497.70;2139252;82;21038;-82
2021/12/23 04:28:51;;;;;;;116.90;47.80;;;;;;;-6.68;75.26;99487.09;2133998;83;20974;-83
2021/12/23 04:31:52;;;;;;;123.97;50.73;;;;;;;-6.70;75.03;99484.80;2133582;83;20990;-82
2021/12/23 04:34:52;;;;;;;133.67;53.37;;;;;;;-6.67;76.13;99481.64;2133550;83;20919;-81
2021/12/23 04:37:53;;;;;;;123.63;47.23;;;;;;;-6.55;75.74;99468.75;2133801;83;20935;-82
2021/12/23 04:40:53;;;;;;;120.87;47.77;;;;;;;-6.57;75.39;99467.73;2133654;83;20939;-81
2021/12/23 04:43:54;;;;;;;120.47;47.50;;;;;;;-6.58;75.27;99474.45;2133540;83;21389;-81
2021/12/23 04:46:54;;;;;;;117.17;48.63;;;;;;;-6.54;76.07;99475.61;2133641;83;21346;-80
2021/12/23 04:49:55;;;;;;;119.03;50.57;;;;;;;-6.49;75.89;99468.91;2133292;83;20966;-81
2021/12/23 04:52:55;;;;;;;114.03;46.67;;;;;;;-6.52;75.49;99462.67;2132505;83;20942;-81
2021/12/23 04:55:56;;;;;;;111.40;47.30;;;;;;;-6.57;75.50;99454.65;2132532;83;21397;-79
2021/12/23 04:58:56;;;;;;;117.03;50.43;;;;;;;-6.64;75.45;99458.68;2133003;83;21310;-81
2021/12/23 05:01:57;;;;;;;124.37;52.70;;;;;;;-6.67;75.50;99457.52;2133174;83;21270;-81
2021/12/23 05:04:57;;;;;;;116.67;48.40;;;;;;;-6.70;75.74;99449.25;2133623;83;20970;-80
2021/12/23 05:07:58;;;;;;;119.10;49.27;;;;;;;-6.67;75.85;99444.83;2133320;83;20946;-80
2021/12/23 05:10:58;;;;;;;110.13;45.93;;;;;;;-6.67;75.90;99444.45;2133117;83;20954;-79
2021/12/23 05:13:59;;;;;;;131.00;48.53;;;;;;;-6.66;75.79;99444.95;2132687;83;20931;-81
2021/12/23 05:16:59;;;;;;;123.57;48.33;;;;;;;-6.71;75.77;99432.62;2132963;83;21429;-79
2021/12/23 05:20:00;;;;;;;140.77;51.30;;;;;;;-6.76;75.70;99434.75;2133188;83;20973;-79
2021/12/23 05:23:00;;;;;;;152.63;51.13;;;;;;;-6.79;75.91;99430.30;2132840;83;20970;-81
2021/12/23 05:26:05;;;;;;;139.57;53.03;;;;;;;-6.78;76.13;99423.57;2132045;83;20950;-82
2021/12/23 05:29:03;;;;;;;107.83;45.60;;;;;;;-6.79;75.80;99414.17;2154268;82;21045;-81
2021/12/23 05:32:04;;;;;;;124.27;47.13;;;;;;;-6.80;75.74;99413.28;2154334;83;20938;-82
2021/12/23 05:35:04;;;;;;;137.80;52.60;;;;;;;-6.82;75.71;99424.06;2154920;83;20965;-81
2021/12/23 05:38:05;;;;;;;123.83;45.60;;;;;;;-6.90;75.47;99410.70;2155196;83;21401;-81
2021/12/23 05:41:05;;;;;;;113.57;49.00;;;;;;;-6.93;75.66;99405.72;2154996;83;20985;-78
2021/12/23 05:44:06;;;;;;;116.83;48.93;;;;;;;-6.96;75.78;99403.77;2155284;82;21000;-80
2021/12/23 05:47:06;;;;;;;132.97;50.40;;;;;;;-6.91;76.26;99399.14;2155383;82;20942;-80
2021/12/23 05:50:07;;;;;;;107.90;46.57;;;;;;;-6.91;75.83;99388.98;2153905;83;21608;-80
2021/12/23 05:53:07;;;;;;;117.17;50.57;;;;;;;-6.91;75.68;99380.10;2154244;82;21363;-80
2021/12/23 05:56:08;;;;;;;112.37;45.80;;;;;;;-6.92;75.78;99377.05;2154166;82;21040;-82
2021/12/23 05:59:08;;;;;;;119.67;50.40;;;;;;;-6.94;75.72;99370.54;2154379;83;20985;-80
2021/12/23 06:02:09;;;;;;;114.30;46.33;;;;;;;-6.94;76.05;99368.37;2153293;83;20913;-79
2021/12/23 06:05:13;;;;;;;124.33;49.60;;;;;;;-6.90;75.71;99365.39;2153690;82;21059;-79
2021/12/23 06:08:13;;;;;;;107.33;44.30;;;;;;;-6.90;76.06;99362.47;2153534;83;20965;-82
2021/12/23 06:11:13;;;;;;;106.73;46.17;;;;;;;-6.85;75.71;99355.25;2153256;83;21743;-79
2021/12/23 06:14:14;;;;;;;108.60;46.43;;;;;;;-6.86;75.77;99355.63;2153703;83;21353;-81
2021/12/23 06:17:15;;;;;;;106.43;43.43;;;;;;;-6.83;75.95;99358.81;2153932;83;20926;-81
2021/12/23 06:20:15;;;;;;;141.60;54.87;;;;;;;-6.80;75.63;99361.63;2154051;83;20938;-82
2021/12/23 06:23:16;;;;;;;108.67;47.90;;;;;;;-6.77;75.67;99361.89;2154916;83;20993;-80
2021/12/23 06:26:16;;;;;;;122.30;48.53;;;;;;;-6.72;75.65;99359.37;2154323;83;21020;-81
2021/12/23 06:29:17;;;;;;;117.27;46.47;;;;;;;-6.73;75.36;99361.39;2138590;83;20993;-82
2021/12/23 06:32:17;;;;;;;108.57;47.53;;;;;;;-6.72;75.45;99363.17;2139291;83;21380;-81
2021/12/23 06:35:18;;;;;;;122.67;50.87;;;;;;;-6.71;75.37;99363.69;2138994;83;21669;-81
2021/12/23 06:38:18;;;;;;;112.60;49.67;;;;;;;-6.67;75.27;99363.58;2139002;83;20970;-82
2021/12/23 06:41:19;;;;;;;112.93;48.97;;;;;;;-6.62;75.36;99364.48;2138574;83;21009;-81
2021/12/23 06:44:20;;;;;;;112.53;49.53;;;;;;;-6.60;75.02;99370.58;2138600;83;20958;-81
2021/12/23 06:47:21;;;;;;;105.30;46.30;;;;;;;-6.58;74.91;99366.91;2138122;83;20930;-81
2021/12/23 06:50:22;;;;;;;122.27;52.43;;;;;;;-6.58;74.78;99369.45;2138171;83;20931;-82
2021/12/23 06:53:26;;;;;;;121.62;47.83;;;;;;;-6.57;74.80;99367.42;2138980;83;20993;-80
2021/12/23 06:56:26;;;;;;;129.67;50.47;;;;;;;-6.53;74.88;99366.55;2139969;83;21046;-80
2021/12/23 06:59:27;;;;;;;105.53;48.23;;;;;;;-6.44;77.98;99359.72;2138543;83;21374;-83
2021/12/23 07:02:31;;;;;;;114.30;50.33;;;;;;;-6.13;74.99;99349.61;2139010;83;21397;-81
2021/12/23 07:05:31;;;;;;;115.47;49.18;;;;;;;-6.26;74.39;99346.80;2139385;83;21373;-81
2021/12/23 07:08:34;;;;;;;122.63;51.20;;;;;;;-6.32;74.14;99347.55;2138744;83;21007;-81
2021/12/23 07:11:37;;;;;;;121.17;53.63;;;;;;;-6.37;74.04;99343.34;2138282;83;20969;-82
2021/12/23 07:14:38;;;;;;;123.07;50.60;;;;;;;-6.42;74.21;99340.41;2138517;83;20934;-81
2021/12/23 07:20:40;;;;;;;120.80;52.77;;;;;;;-6.40;74.07;99335.47;2114054;83;21026;-82
2021/12/23 07:23:41;;;;;;;114.47;50.37;;;;;;;-6.40;73.91;99331.66;2138911;83;20989;-82
2021/12/23 07:26:41;;;;;;;116.00;52.30;;;;;;;-6.39;74.14;99333.44;2138895;83;21048;-81
2021/12/23 07:29:42;;;;;;;126.00;55.33;;;;;;;-6.31;74.29;99334.08;2151334;82;21388;-82
2021/12/23 07:32:42;;;;;;;121.60;56.27;;;;;;;-6.25;74.12;99327.87;2138563;83;20963;-83
2021/12/23 07:35:43;;;;;;;110.70;48.03;;;;;;;-6.16;74.00;99321.40;2138829;83;21665;-82
2021/12/23 07:38:43;;;;;;;125.53;54.47;;;;;;;-5.95;74.87;99308.36;2139266;83;20966;-82
2021/12/23 07:41:44;;;;;;;116.47;52.07;;;;;;;-5.88;74.08;99310.23;2138793;83;20930;-81
2021/12/23 07:44:44;;;;;;;121.37;54.07;;;;;;;-5.80;74.08;99309.20;2139851;83;21024;-81
2021/12/23 07:47:45;;;;;;;122.43;53.00;;;;;;;-5.71;73.50;99309.45;2139549;83;20939;-82
2021/12/23 07:50:45;;;;;;;119.40;51.30;;;;;;;-5.63;73.75;99310.97;2139970;83;20958;-83
2021/12/23 07:53:46;;;;;;;120.37;55.17;;;;;;;-5.51;73.59;99308.16;2139701;83;20958;-82
2021/12/23 07:56:47;;;;;;;118.07;52.93;;;;;;;-5.38;73.53;99296.04;2139348;83;21009;-81
2021/12/23 07:59:47;;;;;;;114.23;51.60;;;;;;;-5.28;73.13;99300.72;2139754;83;21002;-82
2021/12/23 08:02:48;;;;;;;118.43;56.67;;;;;;;-5.16;73.40;99307.20;2138157;83;20985;-81
2021/12/23 08:05:49;;;;;;;116.43;54.17;;;;;;;-5.01;73.49;99308.81;2138101;83;21153;-82
2021/12/23 08:12:07;;;;;;;126.40;57.93;;;;;;;-4.74;72.56;99288.06;2237581;79;22635;-81
2021/12/23 08:15:07;;;;;;;123.47;56.87;;;;;;;-4.69;72.79;99285.48;2189046;81;21032;-82
2021/12/23 08:18:08;;;;;;;131.37;55.93;;;;;;;-4.62;72.68;99275.00;2189039;81;20988;-81
2021/12/23 08:24:45;;;;;;;115.60;53.30;;;;;;;-4.49;72.29;99259.89;2187703;81;21015;-82
2021/12/23 08:27:46;;;;;;;105.40;50.27;;;;;;;-4.41;72.17;99257.04;2189132;81;20970;-82
2021/12/23 08:30:46;;;;;;;128.43;55.97;;;;;;;-4.32;71.92;99259.05;2187108;81;20975;-83
2021/12/23 08:33:50;;;;;;;107.03;50.10;;;;;;;-4.26;71.76;99265.88;2188145;81;20991;-82
2021/12/23 08:36:50;;;;;;;126.23;57.57;;;;;;;-4.16;71.61;99254.33;2188148;81;21007;-82
2021/12/23 08:39:51;;;;;;;118.53;54.47;;;;;;;-4.05;71.59;99256.41;2187288;81;20991;-82
2021/12/23 08:45:54;;;;;;;120.27;55.60;;;;;;;-3.79;71.50;99241.77;2168586;81;21042;-82
2021/12/23 08:48:55;;;;;;;135.10;61.00;;;;;;;-3.64;70.85;99242.89;2188879;81;20991;-81
2021/12/23 08:51:55;;;;;;;117.83;52.27;;;;;;;-3.55;70.89;99235.52;2188982;81;20979;-83
2021/12/23 08:54:56;;;;;;;109.17;52.50;;;;;;;-3.41;70.48;99225.45;2189527;81;21023;-83
2021/12/23 08:57:56;;;;;;;118.27;54.30;;;;;;;-3.34;70.37;99217.08;2188749;81;21107;-82
2021/12/23 09:00:57;;;;;;;128.20;59.63;;;;;;;-3.25;70.44;99202.41;2188675;81;21022;-82
2021/12/23 09:03:57;;;;;;;112.57;52.03;;;;;;;-3.09;70.55;99190.73;2188809;81;21446;-80
2021/12/23 09:06:58;;;;;;;118.07;57.10;;;;;;;-2.95;70.13;99190.91;2188370;81;21330;-80
2021/12/23 09:09:58;;;;;;;117.20;57.70;;;;;;;-2.88;70.02;99183.28;2188243;81;21703;-81
2021/12/23 09:12:59;;;;;;;109.30;52.20;;;;;;;-2.79;69.76;99181.75;2188697;81;21300;-81
2021/12/23 09:15:59;;;;;;;105.47;50.43;;;;;;;-2.69;69.66;99176.49;2188522;81;20987;-81
2021/12/23 09:19:00;;;;;;;86.33;43.40;;;;;;;-2.66;69.10;99170.31;2188561;81;20952;-81
2021/12/23 09:22:01;;;;;;;122.30;57.03;;;;;;;-2.68;67.92;99166.77;2188329;81;20948;-81
2021/12/23 09:25:11;;;;;;;111.80;55.30;;;;;;;-2.65;69.36;99171.70;2187309;81;21040;-81
2021/12/23 09:28:07;;;;;;;97.23;46.67;;;;;;;-2.51;69.39;99165.00;2186774;81;20997;-81
2021/12/23 09:34:25;;;;;;;100.67;47.20;;;;;;;-2.34;68.51;99154.23;2187473;81;20975;-81
2021/12/23 09:37:26;;;;;;;103.43;50.37;;;;;;;-2.21;68.64;99149.94;2188195;81;20964;-81
2021/12/23 09:40:29;;;;;;;103.17;49.77;;;;;;;-2.13;68.59;99140.70;2187066;81;21066;-81
2021/12/23 09:43:32;;;;;;;90.77;46.17;;;;;;;-2.02;68.54;99136.29;2187548;81;21387;-82
2021/12/23 09:46:34;;;;;;;93.97;44.17;;;;;;;-1.85;68.41;99138.66;2187288;81;20960;-81
2021/12/23 09:49:35;;;;;;;101.37;48.80;;;;;;;-1.77;67.83;99130.69;2187204;81;21386;-81
2021/12/23 09:52:35;;;;;;;94.37;46.17;;;;;;;-1.70;67.31;99125.61;2187844;81;20944;-83
2021/12/23 09:55:36;;;;;;;82.93;41.43;;;;;;;-1.72;67.42;99120.78;2187641;81;21342;-80
2021/12/23 10:01:39;;;;;;;91.23;46.67;;;;;;;-1.63;67.08;99098.33;2170484;81;20988;-83
2021/12/23 10:04:39;;;;;;;92.33;44.43;;;;;;;-1.62;67.28;99098.43;2188189;81;21687;-82
2021/12/23 10:07:41;;;;;;;91.17;43.33;;;;;;;-1.51;69.21;99091.81;2187876;81;20924;-83
2021/12/23 10:10:49;;;;;;;91.23;44.87;;;;;;;-1.38;66.90;99085.39;2182067;81;21064;-83
2021/12/23 10:39:43;;;;;;;85.13;41.50;;;;;;;-0.93;66.88;99010.44;2172088;82;20984;-83
2021/12/23 10:42:44;;;;;;;81.93;40.67;;;;;;;-0.84;66.27;99002.05;2172616;81;21024;-82
2021/12/23 10:45:54;;;;;;;79.63;39.27;;;;;;;-0.82;66.46;98997.89;2170994;81;20960;-83
2021/12/23 10:48:46;;;;;;;85.47;41.27;;;;;;;-0.76;65.54;98990.95;2170380;81;21020;-81
2021/12/23 10:51:56;;;;;;;78.70;41.10;;;;;;;-0.74;66.10;98981.28;2170985;81;20952;-80
2021/12/23 10:58:02;;;;;;;88.83;40.30;;;;;;;-0.61;66.02;98973.89;2160674;82;20948;-80
2021/12/23 11:01:03;;;;;;;67.47;35.37;;;;;;;-0.52;66.11;98958.16;2172703;81;20989;-82
2021/12/23 11:04:03;;;;;;;70.07;36.10;;;;;;;-0.52;65.05;98949.18;2171651;82;20977;-81
2021/12/23 11:07:11;;;;;;;69.73;35.07;;;;;;;-0.51;64.80;98942.85;2171817;81;20952;-81
2021/12/23 11:10:21;;;;;;;78.23;37.90;;;;;;;-0.52;63.93;98933.80;2171521;81;20984;-82
2021/12/23 11:30:26;;;;;;;57.27;28.47;;;;;;;-0.33;63.57;98891.30;2177728;82;20987;-83
2021/12/23 11:39:33;;;;;;;64.60;30.60;;;;;;;-0.36;62.82;98881.27;2162283;82;21414;-81
2021/12/23 11:45:39;;;;;;;58.23;28.93;;;;;;;-0.40;62.57;98868.69;2175616;82;21343;-82
2021/12/23 11:48:44;;;;;;;63.67;30.03;;;;;;;-0.47;62.74;98869.55;2177910;81;21340;-82
2021/12/23 11:51:56;;;;;;;59.47;28.83;;;;;;;-0.54;63.54;98858.07;2178594;81;21023;-83
2021/12/23 11:54:49;;;;;;;59.33;30.47;;;;;;;-0.59;62.88;98858.61;2177398;81;21036;-82
2021/12/23 11:57:51;;;;;;;59.87;30.43;;;;;;;-0.60;63.50;98842.34;2179337;82;20996;-82
2021/12/23 12:00:51;;;;;;;54.33;27.37;;;;;;;-0.59;63.55;98847.08;2180299;82;21387;-83
2021/12/23 12:03:52;;;;;;;56.20;27.83;;;;;;;-0.63;63.09;98829.36;2178862;82;20969;-81
2021/12/23 12:06:52;;;;;;;53.63;27.00;;;;;;;-0.66;63.80;98818.54;2179432;82;20941;-84
2021/12/23 12:09:53;;;;;;;53.17;27.67;;;;;;;-0.69;62.67;98805.55;2179301;82;21458;-84
2021/12/23 12:12:53;;;;;;;52.80;28.47;;;;;;;-0.75;63.22;98791.13;2171219;82;21016;-83
2021/12/23 12:15:57;;;;;;;58.70;30.00;;;;;;;-0.79;63.57;98790.47;2170157;81;20992;-82
2021/12/23 12:18:56;;;;;;;54.20;28.07;;;;;;;-0.84;63.77;98785.89;2170361;81;21367;-83
2021/12/23 12:21:57;;;;;;;59.03;28.90;;;;;;;-0.89;63.85;98772.78;2170152;82;20973;-82
2021/12/23 12:24:57;;;;;;;62.30;29.40;;;;;;;-0.90;63.78;98767.17;2170609;81;20921;-83
2021/12/23 12:28:00;;;;;;;66.03;29.70;;;;;;;-0.94;63.90;98771.66;2170787;81;21395;-81
2021/12/23 12:31:00;;;;;;;63.13;29.63;;;;;;;-0.99;63.90;98768.83;2171123;82;21406;-83
2021/12/23 12:34:02;;;;;;;62.63;28.90;;;;;;;-1.04;63.99;98765.13;2161993;82;20925;-81
2021/12/23 12:40:05;;;;;;;61.13;29.70;;;;;;;-1.05;64.70;98766.33;2161235;82;21280;-85
2021/12/23 12:43:05;;;;;;;60.77;29.60;;;;;;;-1.00;64.79;98770.91;2171415;81;21040;-81
2021/12/23 12:46:06;;;;;;;65.80;29.83;;;;;;;-0.93;64.34;98758.04;2171809;81;20964;-81
2021/12/23 12:49:10;;;;;;;62.17;30.57;;;;;;;-0.89;64.24;98753.56;2170641;81;20949;-82
2021/12/23 12:52:18;;;;;;;62.20;29.23;;;;;;;-0.84;64.56;98743.60;2171519;81;20940;-81
2021/12/23 12:55:22;;;;;;;63.47;30.60;;;;;;;-0.82;63.82;98730.08;2171299;82;21379;-84
2021/12/23 12:58:21;;;;;;;60.63;29.60;;;;;;;-0.76;64.15;98733.37;2171089;81;20948;-82
2021/12/23 13:01:22;;;;;;;60.57;28.83;;;;;;;-0.76;63.55;98721.44;2170761;81;21035;-82
2021/12/23 13:04:22;;;;;;;55.67;29.13;;;;;;;-0.76;63.96;98722.72;2170322;81;21332;-81
2021/12/23 13:07:23;;;;;;;61.90;30.33;;;;;;;-0.76;63.31;98724.00;2170802;82;21352;-83
2021/12/23 13:10:25;;;;;;;59.87;28.57;;;;;;;-0.81;63.87;98719.02;2171317;81;20976;-82
2021/12/23 13:13:31;;;;;;;59.10;28.90;;;;;;;-0.86;63.91;98713.16;2172091;81;20996;-80
2021/12/23 13:16:28;;;;;;;56.97;29.10;;;;;;;-0.92;63.83;98702.55;2172198;81;20956;-81
2021/12/23 13:19:28;;;;;;;58.07;28.53;;;;;;;-0.99;64.19;98700.94;2170869;81;20953;-81
2021/12/23 13:22:29;;;;;;;51.90;28.03;;;;;;;-1.05;63.87;98681.39;2170055;81;21769;-82
2021/12/23 13:25:30;;;;;;;50.87;25.90;;;;;;;-1.13;64.00;98676.25;2169734;82;21011;-83
2021/12/23 13:28:31;;;;;;;54.10;27.27;;;;;;;-1.17;63.64;98670.48;2172240;81;20972;-83
2021/12/23 13:31:32;;;;;;;52.27;25.37;;;;;;;-1.29;63.46;98671.97;2172902;82;21087;-84
2021/12/23 13:34:33;;;;;;;49.10;26.30;;;;;;;-1.34;63.42;98669.95;2172615;81;20984;-83
2021/12/23 13:37:33;;;;;;;58.53;33.03;;;;;;;-1.38;63.66;98657.78;2172490;81;21075;-83
2021/12/23 13:40:34;;;;;;;55.60;25.60;;;;;;;-1.44;63.76;98653.60;2173061;81;20961;-82
2021/12/23 13:43:35;;;;;;;52.67;25.63;;;;;;;-1.49;63.66;98651.19;2172323;81;20995;-83
2021/12/23 13:46:35;;;;;;;45.97;24.43;;;;;;;-1.54;63.69;98641.97;2172097;81;20980;-83
2021/12/23 13:49:36;;;;;;;57.00;25.77;;;;;;;-1.60;64.01;98632.67;2172761;81;21344;-82
2021/12/23 13:52:39;;;;;;;53.20;24.33;;;;;;;-1.64;64.37;98635.46;2172802;81;20913;-83
2021/12/23 13:55:40;;;;;;;52.93;25.48;;;;;;;-1.76;64.04;98621.95;2162965;82;21312;-83
2021/12/23 13:58:41;;;;;;;53.17;25.53;;;;;;;-1.87;64.41;98623.42;2173770;81;20984;-84
2021/12/23 14:01:41;;;;;;;52.17;27.40;;;;;;;-1.94;64.95;98621.80;2172802;82;20988;-84
2021/12/23 14:04:42;;;;;;;56.37;27.60;;;;;;;-2.00;65.16;98620.56;2171860;81;21340;-84
2021/12/23 14:07:43;;;;;;;62.60;28.53;;;;;;;-2.08;65.28;98605.18;2172927;81;20980;-82
2021/12/23 14:10:43;;;;;;;68.33;30.03;;;;;;;-2.19;65.37;98602.01;2172245;81;21043;-83
2021/12/23 14:13:44;;;;;;;57.20;28.07;;;;;;;-2.22;65.73;98606.06;2172059;81;21052;-84
2021/12/23 14:16:44;;;;;;;61.77;30.40;;;;;;;-2.31;65.63;98598.34;2173190;81;20945;-82
2021/12/23 14:23:11;;;;;;;52.90;25.87;;;;;;;-2.34;65.99;98599.84;2162553;82;20909;-82
2021/12/23 14:26:08;;;;;;;54.53;26.17;;;;;;;-2.43;66.15;98590.37;2173438;82;20979;-83
2021/12/23 14:29:09;;;;;;;56.20;28.90;;;;;;;-2.43;66.37;98581.03;2173132;82;21000;-83
2021/12/23 14:32:09;;;;;;;53.70;27.97;;;;;;;-2.42;66.41;98576.80;2172798;81;21039;-83
2021/12/23 14:35:10;;;;;;;65.00;29.13;;;;;;;-2.42;66.32;98569.13;2172990;81;20953;-81
2021/12/23 14:38:10;;;;;;;58.40;28.83;;;;;;;-2.45;65.97;98567.67;2173473;81;21333;-82
2021/12/23 14:41:11;;;;;;;67.07;31.63;;;;;;;-2.44;66.06;98553.70;2172950;81;21017;-83
2021/12/23 14:44:11;;;;;;;62.43;30.37;;;;;;;-2.46;66.17;98546.74;2174445;81;21333;-81
2021/12/23 14:47:21;;;;;;;64.87;32.13;;;;;;;-2.45;66.47;98550.66;2173318;82;21015;-82
2021/12/23 14:50:17;;;;;;;57.30;28.77;;;;;;;-2.50;66.07;98541.85;2171493;81;21020;-82
2021/12/23 14:53:17;;;;;;;67.23;31.17;;;;;;;-2.51;66.26;98537.53;2172167;81;21041;-83
2021/12/23 14:56:18;;;;;;;71.63;33.87;;;;;;;-2.52;66.48;98532.33;2173232;82;20944;-83
2021/12/23 14:59:19;;;;;;;72.57;34.00;;;;;;;-2.54;66.58;98518.19;2173732;82;20984;-83
2021/12/23 15:02:19;;;;;;;70.87;32.47;;;;;;;-2.54;66.90;98525.86;2174361;82;20980;-83
2021/12/23 15:05:20;;;;;;;77.90;35.40;;;;;;;-2.54;67.05;98527.53;2173503;81;20948;-84
2021/12/23 15:08:20;;;;;;;83.17;36.33;;;;;;;-2.58;67.06;98527.35;2173113;81;21676;-82
2021/12/23 15:11:21;;;;;;;76.50;35.77;;;;;;;-2.59;67.12;98516.65;2175321;81;20999;-82